Chestnut Ridge, PA (15422)

6:46 PM EST on January 30, 2015 (GMT -0500)
Dunbar | Change Station
CLOSE
Current Station
Personal Weather Station
Location: Dunbar, PA
Elevation: 1056 ft
Nearby Weather Stations
Active Advisory: Winter Storm Watch Active Notice: Public Information Statement

Elev 1056 ft 40.00 °N, 79.69 °W | Updated 1 minute ago

Overcast
Overcast
15.3 °F
Feels Like 6 °F
N
6.0
Wind Variable Wind from NW
Gusts 13.0 mph

Today
High -- | Low -- °F
--% Chance of Precip.
Yesterday
High -- | Low -- °F
Precip. -- in
7:29 AM 5:35 PM
Waxing Gibbous, 86% visible
Pressure 30.36 in
Visibility 5.0 miles
Clouds Mostly Cloudy 1900 ft
Mostly Cloudy 2600 ft
Overcast 3400 ft
Windchill 6 °F
Dew Point 0 °F
Humidity 51%
Rainfall 0.00 in
Snow Depth Not available.
UV 0 out of 12
Pollen .10 out of 12
Air Quality Not available.
Flu Activity Not available.
SPECI KMGW 302330Z VRB05KT 5SM -SN BKN019 BKN026 OVC034 M08/M12 A3036 RMK AO2 P0000 T10781122

More Conditions Fewer Conditions

Pressure 30.36 in
Visibility 5.0 miles
Clouds Mostly Cloudy 1900 ft
Mostly Cloudy 2600 ft
Overcast 3400 ft
Windchill 6 °F
Dew Point 0 °F
Humidity 51%
Rainfall 0.00 in
Snow Depth Not available.
UV 0 out of 12
Pollen .10 out of 12
Air Quality Not available.
Flu Activity Not available.
SPECI KMGW 302330Z VRB05KT 5SM -SN BKN019 BKN026 OVC034 M08/M12 A3036 RMK AO2 P0000 T10781122

More Conditions Fewer Conditions

10-Day Weather Forecast

Almanac

Astronomy

Jan. 30, 2015 Rise Set
Actual Time
Civil Twilight
Nautical Twilight
Astronomical Twilight
Moon
Length of Visible Light
Length of Day
Tomorrow will be .
, % of the Moon is Illuminated

Today's Extremes

State Highs State Lows

Community

WunderPhotos

Upload Photos

1,791,934 photos uploaded!

WunderBlogs® & News

Nearby

Air Quality

  Air Quality AQ Index Pollutant
Not available.

Snow Depth

Station Depth Elevation

Earthquake Activity

City Distance Mag. Time & Date
Minimum magnitude displayed is 2.5.

Coastal Water Temperatures

Place Temperature

Nearby Weather Stations